createdAt,value
2019-05-16T00:01:42.794Z,1.00
2019-05-16T00:04:10.806Z,0.90
2019-05-16T00:06:39.232Z,0.80
2019-05-16T00:09:07.970Z,0.87
2019-05-16T00:11:38.259Z,1.20
2019-05-16T00:14:06.367Z,1.00
2019-05-16T00:16:37.856Z,1.10
2019-05-16T00:19:05.943Z,0.90
2019-05-16T00:21:33.991Z,1.27
2019-05-16T00:24:02.114Z,1.07
2019-05-16T00:26:30.124Z,1.20
2019-05-16T00:28:58.906Z,0.83
2019-05-16T00:31:28.710Z,1.00
2019-05-16T00:33:57.867Z,1.20
2019-05-16T00:36:27.817Z,0.90
2019-05-16T00:38:57.730Z,0.90
2019-05-16T00:41:25.533Z,1.07
2019-05-16T00:43:53.677Z,1.20
2019-05-16T00:46:21.717Z,0.87
2019-05-16T00:48:49.676Z,0.97
2019-05-16T00:51:18.301Z,1.37
2019-05-16T00:53:48.269Z,0.97
2019-05-16T00:56:18.385Z,1.00
2019-05-16T00:58:48.256Z,1.00
2019-05-16T01:01:15.790Z,0.90
2019-05-16T01:03:43.824Z,1.27
2019-05-16T01:06:19.225Z,0.73
2019-05-16T01:08:41.530Z,0.93
2019-05-16T01:11:09.611Z,1.00
2019-05-16T01:13:38.052Z,1.40
2019-05-16T01:16:08.409Z,0.80
2019-05-16T01:18:37.985Z,1.57
2019-05-16T01:21:07.694Z,0.90
2019-05-16T01:23:35.569Z,1.10
2019-05-16T01:26:03.588Z,1.07
2019-05-16T01:28:31.618Z,1.17
2019-05-16T01:30:59.660Z,1.30
2019-05-16T01:33:28.102Z,1.13
2019-05-16T01:35:58.288Z,1.30
2019-05-16T01:38:28.332Z,0.70
2019-05-16T01:40:58.111Z,0.90
2019-05-16T01:43:25.443Z,0.80
2019-05-16T01:45:53.585Z,0.87
2019-05-16T01:48:21.708Z,0.70
2019-05-16T01:53:59.562Z,0.70
2019-05-16T01:59:38.108Z,0.53
2019-05-16T02:02:08.189Z,0.87
2019-05-16T02:04:37.836Z,0.70
2019-05-16T02:07:05.685Z,0.80
2019-05-16T02:09:33.846Z,0.90
2019-05-16T02:12:01.880Z,0.70
2019-05-16T02:14:29.944Z,0.80
2019-05-16T02:16:58.168Z,1.10
2019-05-16T02:19:27.991Z,0.60
2019-05-16T02:21:56.089Z,0.90
2019-05-16T02:25:00.425Z,0.80
2019-05-16T02:27:28.834Z,1.00
2019-05-16T02:29:56.928Z,0.67
2019-05-16T02:32:24.953Z,0.67
2019-05-16T02:34:52.962Z,0.90
2019-05-16T02:37:29.257Z,0.70
2019-05-16T02:39:54.313Z,0.53
2019-05-16T02:42:21.208Z,0.83
2019-05-16T02:44:51.209Z,0.77
2019-05-16T02:47:21.061Z,0.80
2019-05-16T02:49:50.493Z,0.73
2019-05-16T02:52:21.568Z,0.60
2019-05-16T02:54:51.549Z,1.20
2019-05-16T02:57:20.952Z,0.63
2019-05-16T02:59:50.701Z,0.90
2019-05-16T03:02:20.278Z,0.70
2019-05-16T03:04:46.982Z,0.60
2019-05-16T03:10:36.668Z,1.10
2019-05-16T03:13:04.696Z,0.60
2019-05-16T03:15:32.673Z,0.80
2019-05-16T03:18:04.426Z,1.10
2019-05-16T03:20:33.202Z,0.93
2019-05-16T03:23:02.186Z,1.00
2019-05-16T03:25:31.136Z,0.87
2019-05-16T03:28:01.975Z,0.73
2019-05-16T03:30:34.179Z,0.80
2019-05-16T03:33:03.784Z,0.80
2019-05-16T03:35:33.383Z,1.10
2019-05-16T03:38:01.397Z,1.00
2019-05-16T03:40:31.278Z,0.70
2019-05-16T03:43:01.065Z,0.70
2019-05-16T03:45:27.647Z,0.80
2019-05-16T03:47:55.695Z,0.90
2019-05-16T03:50:23.699Z,0.80
2019-05-16T03:52:51.837Z,0.80
2019-05-16T03:55:21.344Z,0.50
2019-05-16T03:57:51.616Z,0.83
2019-05-16T04:00:21.603Z,1.00
2019-05-16T04:02:52.277Z,1.20
2019-05-16T04:05:21.201Z,0.90
2019-05-16T04:07:53.133Z,0.90
2019-05-16T04:10:21.349Z,0.80
2019-05-16T04:12:51.150Z,1.13
2019-05-16T04:15:21.201Z,0.80
2019-05-16T04:17:51.045Z,0.70
2019-05-16T04:20:17.516Z,0.70
2019-05-16T04:22:45.556Z,0.80
2019-05-16T04:25:13.686Z,0.73
2019-05-16T04:27:42.283Z,0.67
2019-05-16T04:30:11.797Z,0.90
2019-05-16T04:32:42.037Z,0.70
2019-05-16T04:35:11.150Z,0.60
2019-05-16T04:37:42.135Z,0.80
2019-05-16T04:40:12.188Z,0.70
2019-05-16T04:42:41.713Z,1.00
2019-05-16T04:45:11.865Z,0.80
2019-05-16T04:47:41.307Z,0.60
2019-05-16T04:50:11.377Z,1.00
2019-05-16T04:52:41.381Z,0.70
2019-05-16T04:55:11.364Z,0.80
2019-05-16T04:57:41.762Z,0.73
2019-05-16T05:00:10.851Z,0.70
2019-05-16T05:02:37.520Z,0.87
2019-05-16T05:05:05.774Z,1.00
2019-05-16T05:07:33.768Z,0.70
2019-05-16T05:10:01.785Z,0.60
2019-05-16T05:12:31.415Z,0.80
2019-05-16T05:15:01.217Z,1.17
2019-05-16T05:17:30.621Z,0.83
2019-05-16T05:20:01.039Z,0.83
2019-05-16T05:22:30.471Z,1.13
2019-05-16T05:25:00.135Z,1.03
2019-05-16T05:27:30.128Z,0.63
2019-05-16T05:29:57.658Z,1.20
2019-05-16T05:32:26.296Z,1.00
2019-05-16T05:34:54.292Z,0.97
2019-05-16T05:37:22.332Z,1.00
2019-05-16T05:39:50.547Z,1.20
2019-05-16T05:45:30.499Z,1.10
2019-05-16T05:48:00.034Z,0.73
2019-05-16T05:50:27.498Z,0.90
2019-05-16T05:52:55.555Z,1.10
2019-05-16T05:55:23.660Z,1.53
2019-05-16T05:57:51.646Z,1.23
2019-05-16T06:00:21.145Z,0.77
2019-05-16T06:02:50.793Z,1.00
2019-05-16T06:05:20.154Z,0.80
2019-05-16T06:07:50.796Z,1.00
2019-05-16T06:10:19.931Z,0.97
2019-05-16T06:12:50.037Z,1.00
2019-05-16T06:15:20.087Z,1.00
2019-05-16T06:17:47.760Z,0.77
2019-05-16T06:20:15.912Z,0.83
2019-05-16T06:22:43.929Z,1.20
2019-05-16T06:25:13.061Z,0.90
2019-05-16T06:27:42.132Z,0.80
2019-05-16T06:30:11.459Z,0.70
2019-05-16T06:32:39.757Z,0.90
2019-05-16T06:35:09.765Z,0.97
2019-05-16T06:37:40.315Z,0.90
2019-05-16T06:40:07.860Z,0.90
2019-05-16T06:42:40.239Z,0.97
2019-05-16T06:45:10.380Z,0.90
2019-05-16T06:47:39.735Z,1.10
2019-05-16T06:50:07.677Z,0.80
2019-05-16T06:52:35.670Z,0.90
2019-05-16T06:55:04.061Z,0.80
2019-05-16T06:57:32.307Z,1.03
2019-05-16T07:00:00.710Z,1.20
2019-05-16T07:02:32.810Z,1.20
2019-05-16T07:05:01.004Z,1.30
2019-05-16T07:07:30.790Z,1.23
2019-05-16T07:10:03.658Z,1.00
2019-05-16T07:12:31.522Z,1.00
2019-05-16T07:15:01.197Z,1.30
2019-05-16T07:17:30.509Z,1.40
2019-05-16T07:20:00.540Z,1.00
2019-05-16T07:22:27.649Z,1.07
2019-05-16T07:24:55.703Z,1.10
2019-05-16T07:27:23.738Z,0.80
2019-05-16T07:29:51.801Z,0.73
2019-05-16T07:32:20.009Z,1.00
2019-05-16T07:34:49.832Z,0.90
2019-05-16T07:37:20.013Z,0.90
2019-05-16T07:39:47.622Z,0.80
2019-05-16T07:42:15.758Z,0.93
2019-05-16T07:44:43.786Z,1.00
2019-05-16T07:47:11.909Z,1.10
2019-05-16T07:49:40.703Z,0.93
2019-05-16T07:52:09.912Z,1.00
2019-05-16T07:54:40.404Z,0.90
2019-05-16T07:57:16.205Z,0.97
2019-05-16T07:59:37.691Z,0.80
2019-05-16T08:02:05.863Z,1.00
2019-05-16T08:04:34.060Z,0.90
2019-05-16T08:07:05.516Z,0.97
2019-05-16T08:09:31.926Z,1.00
2019-05-16T08:12:02.314Z,0.70
2019-05-16T08:14:30.381Z,0.90
2019-05-16T08:17:01.208Z,0.70
2019-05-16T08:19:30.571Z,1.10
2019-05-16T08:22:01.277Z,1.07
2019-05-16T08:24:30.574Z,1.20
2019-05-16T08:27:00.967Z,1.53
2019-05-16T08:29:31.068Z,1.37
2019-05-16T08:32:24.647Z,1.20
2019-05-16T08:34:52.674Z,1.20
2019-05-16T08:37:36.957Z,1.27
2019-05-16T08:39:51.323Z,1.20
2019-05-16T08:42:20.950Z,0.90
2019-05-16T08:44:51.623Z,1.17
2019-05-16T08:47:21.284Z,1.00
2019-05-16T08:52:57.664Z,1.17
2019-05-16T08:55:25.767Z,1.13
2019-05-16T08:57:53.820Z,1.40
2019-05-16T09:00:22.170Z,1.27
2019-05-16T09:02:52.539Z,1.30
2019-05-16T09:05:22.702Z,1.30
2019-05-16T09:07:50.525Z,1.20
2019-05-16T09:12:48.208Z,1.10
2019-05-16T09:15:17.131Z,1.07
2019-05-16T09:17:47.416Z,1.60
2019-05-16T09:20:17.426Z,1.27
2019-05-16T09:22:47.856Z,1.40
2019-05-16T09:25:14.931Z,1.37
2019-05-16T09:27:43.429Z,1.53
2019-05-16T09:30:13.192Z,1.20
2019-05-16T09:32:42.824Z,1.10
2019-05-16T09:35:11.296Z,1.40
2019-05-16T09:37:39.367Z,1.60
2019-05-16T09:40:07.804Z,1.30
2019-05-16T09:42:37.199Z,1.20
2019-05-16T09:45:07.272Z,1.37
2019-05-16T09:47:38.626Z,1.57
2019-05-16T09:50:06.865Z,1.50
2019-05-16T09:52:36.440Z,1.70
2019-05-16T09:55:07.034Z,1.43
2019-05-16T09:57:37.319Z,2.20
2019-05-16T10:00:06.789Z,1.60
2019-05-16T10:02:36.697Z,1.70
2019-05-16T10:05:12.296Z,1.67
2019-05-16T10:07:38.507Z,2.00
2019-05-16T10:10:06.536Z,1.47
2019-05-16T10:12:34.513Z,1.67
2019-05-16T10:15:02.526Z,1.40
2019-05-16T10:17:30.822Z,1.50
2019-05-16T10:20:00.139Z,1.90
2019-05-16T10:22:28.586Z,2.00
2019-05-16T10:24:57.294Z,1.50
2019-05-16T10:27:26.495Z,1.33
2019-05-16T10:30:00.651Z,1.70
2019-05-16T10:32:24.389Z,1.50
2019-05-16T10:34:54.172Z,1.77
2019-05-16T10:37:22.240Z,1.97
2019-05-16T10:39:50.259Z,1.63
2019-05-16T10:42:27.435Z,2.30
2019-05-16T10:44:48.681Z,2.10
2019-05-16T10:47:17.394Z,2.80
2019-05-16T10:49:47.620Z,1.90
2019-05-16T10:52:16.627Z,2.10
2019-05-16T10:54:55.263Z,2.23
2019-05-16T10:57:14.592Z,2.40
2019-05-16T11:00:09.175Z,2.13
2019-05-16T11:02:12.610Z,2.20
2019-05-16T11:04:53.851Z,2.77
2019-05-16T11:07:10.344Z,2.43
2019-05-16T11:09:39.437Z,2.00
2019-05-16T11:12:07.750Z,2.50
2019-05-16T11:14:37.055Z,2.30
2019-05-16T11:17:07.352Z,3.00
2019-05-16T11:19:37.110Z,2.37
2019-05-16T11:22:04.766Z,1.97
2019-05-16T11:24:32.845Z,2.50
2019-05-16T11:27:00.977Z,2.93
2019-05-16T11:29:29.009Z,2.63
2019-05-16T11:31:57.423Z,2.10
2019-05-16T11:34:26.691Z,2.77
2019-05-16T11:36:56.875Z,2.60
2019-05-16T11:39:24.587Z,3.27
2019-05-16T11:41:52.655Z,3.10
2019-05-16T11:44:20.677Z,2.70
2019-05-16T11:46:49.332Z,2.90
2019-05-16T11:49:17.508Z,2.90
2019-05-16T11:51:47.149Z,2.53
2019-05-16T11:54:15.230Z,2.63
2019-05-16T11:56:43.380Z,2.70
2019-05-16T11:59:11.403Z,2.73
2019-05-16T12:01:39.454Z,3.10
2019-05-16T12:04:08.032Z,3.20
2019-05-16T12:06:37.426Z,2.57
2019-05-16T12:09:06.828Z,3.07
2019-05-16T12:11:38.153Z,2.77
2019-05-16T12:14:07.164Z,2.23
2019-05-16T12:16:34.731Z,2.60
2019-05-16T12:19:02.750Z,2.90
2019-05-16T12:21:30.812Z,2.47
2019-05-16T12:23:58.853Z,2.93
2019-05-16T12:26:28.139Z,2.83
2019-05-16T12:28:57.316Z,3.20
2019-05-16T12:31:25.732Z,2.80
2019-05-16T12:33:53.961Z,3.37
2019-05-16T12:36:21.999Z,3.00
2019-05-16T12:38:50.157Z,2.90
2019-05-16T12:41:18.332Z,2.57
2019-05-16T12:43:53.095Z,2.50
2019-05-16T12:46:16.058Z,3.10
2019-05-16T12:48:44.111Z,2.70
2019-05-16T12:51:12.132Z,2.83
2019-05-16T12:53:40.166Z,2.70
2019-05-16T12:56:08.295Z,3.10
2019-05-16T12:58:41.415Z,3.33
2019-05-16T13:01:07.821Z,2.67
2019-05-16T13:03:37.831Z,2.73
2019-05-16T13:06:05.789Z,3.03
2019-05-16T13:08:34.002Z,2.97
2019-05-16T13:11:02.073Z,3.10
2019-05-16T13:13:30.093Z,3.37
2019-05-16T13:15:58.182Z,3.17
2019-05-16T13:18:27.577Z,3.87
2019-05-16T13:20:57.334Z,3.40
2019-05-16T13:26:37.310Z,3.93
2019-05-16T13:32:13.647Z,3.57
2019-05-16T13:34:41.714Z,2.93
2019-05-16T13:37:09.857Z,3.30
2019-05-16T13:39:38.009Z,3.13
2019-05-16T13:42:07.978Z,3.60
2019-05-16T13:44:37.644Z,3.60
2019-05-16T13:47:07.459Z,3.50
2019-05-16T13:49:38.125Z,3.17
2019-05-16T13:52:07.145Z,2.37
2019-05-16T13:54:58.726Z,2.90
2019-05-16T13:57:28.263Z,2.17
2019-05-16T13:59:56.849Z,2.80
2019-05-16T14:02:26.748Z,2.80
2019-05-16T14:08:06.705Z,2.20
2019-05-16T14:13:56.398Z,1.83
2019-05-16T14:16:26.817Z,1.80
2019-05-16T14:18:54.346Z,2.77
2019-05-16T14:21:22.485Z,2.20
2019-05-16T14:23:53.186Z,2.27
2019-05-16T14:29:42.130Z,2.47
2019-05-16T14:32:10.969Z,2.50
2019-05-16T14:34:39.233Z,2.33
2019-05-16T14:37:07.389Z,2.30
2019-05-16T14:39:38.415Z,2.80
2019-05-16T14:42:05.319Z,2.20
2019-05-16T14:44:33.333Z,2.90
2019-05-16T14:47:01.540Z,3.00
2019-05-16T14:49:29.560Z,2.90
2019-05-16T14:51:58.135Z,2.77
2019-05-16T14:54:26.865Z,2.53
2019-05-16T14:57:00.272Z,2.60
2019-05-16T14:59:27.152Z,2.40
2019-05-16T15:01:54.654Z,2.87
2019-05-16T15:04:22.686Z,3.00
2019-05-16T15:06:50.713Z,2.77
2019-05-16T15:09:18.765Z,2.70
2019-05-16T15:11:46.789Z,3.20
2019-05-16T15:14:17.230Z,2.77
2019-05-16T15:16:47.443Z,3.20
2019-05-16T15:19:14.429Z,3.00
2019-05-16T15:21:42.585Z,3.07
2019-05-16T15:24:10.760Z,2.87
2019-05-16T15:26:38.819Z,2.83
2019-05-16T15:29:08.203Z,3.03
2019-05-16T15:31:57.594Z,2.90
2019-05-16T15:34:29.904Z,3.57
2019-05-16T15:37:13.686Z,2.77
2019-05-16T15:39:41.731Z,3.00
2019-05-16T15:42:09.753Z,3.07
2019-05-16T15:44:37.836Z,2.80
2019-05-16T15:47:08.158Z,3.93
2019-05-16T15:49:37.753Z,3.53
2019-05-16T15:52:07.345Z,3.80
2019-05-16T15:54:37.497Z,4.43
2019-05-16T15:57:06.701Z,4.40
2019-05-16T15:59:37.386Z,3.53
2019-05-16T16:02:07.104Z,4.03
2019-05-16T16:04:37.120Z,4.37
2019-05-16T16:07:07.389Z,4.03
2019-05-16T16:09:33.984Z,3.83
2019-05-16T16:12:02.042Z,4.70
2019-05-16T16:14:31.682Z,4.00
2019-05-16T16:17:01.844Z,4.10
2019-05-16T16:19:29.932Z,4.30
2019-05-16T16:21:58.032Z,3.30
2019-05-16T16:24:27.876Z,4.77
2019-05-16T16:26:56.769Z,4.37
2019-05-16T16:29:27.110Z,5.10
2019-05-16T16:31:56.745Z,4.03
2019-05-16T16:34:26.794Z,4.73
2019-05-16T16:36:56.941Z,5.23
2019-05-16T16:39:26.848Z,4.40
2019-05-16T16:41:56.933Z,4.23
2019-05-16T16:44:27.337Z,3.77
2019-05-16T16:50:17.202Z,4.53
2019-05-16T16:53:26.825Z,4.30
2019-05-16T16:55:56.912Z,4.87
2019-05-16T16:58:26.409Z,4.20
2019-05-16T17:00:54.308Z,4.97
2019-05-16T17:03:22.477Z,4.63
2019-05-16T17:09:00.854Z,4.57
2019-05-16T17:14:46.562Z,5.20
2019-05-16T17:17:17.657Z,5.57
2019-05-16T17:19:47.375Z,5.77
2019-05-16T17:25:26.940Z,4.70
2019-05-16T17:27:57.280Z,4.83
2019-05-16T17:30:25.966Z,5.80
2019-05-16T17:33:31.027Z,4.90
2019-05-16T17:35:59.144Z,5.50
2019-05-16T17:38:27.518Z,5.83
2019-05-16T17:40:56.994Z,5.40
2019-05-16T17:43:27.032Z,5.27
2019-05-16T17:45:57.435Z,5.90
2019-05-16T17:48:29.595Z,5.20
2019-05-16T17:54:06.618Z,5.63
2019-05-16T17:56:37.003Z,5.23
2019-05-16T17:59:07.353Z,5.67
2019-05-16T18:01:35.883Z,7.57
2019-05-16T18:04:06.336Z,5.53
2019-05-16T18:06:34.010Z,4.93
2019-05-16T18:09:06.625Z,4.83
2019-05-16T18:11:37.413Z,4.77
2019-05-16T18:14:06.271Z,4.80
2019-05-16T18:16:48.451Z,5.00
2019-05-16T18:19:08.308Z,5.97
2019-05-16T18:21:36.981Z,5.10
2019-05-16T18:24:05.824Z,6.30
2019-05-16T18:26:37.225Z,6.17
2019-05-16T18:29:06.827Z,5.20
2019-05-16T18:31:37.159Z,5.63
2019-05-16T18:34:07.193Z,5.70
2019-05-16T18:36:57.220Z,5.03
2019-05-16T18:39:27.230Z,5.77
2019-05-16T18:41:56.517Z,5.27
2019-05-16T18:44:27.155Z,4.87
2019-05-16T18:47:06.654Z,5.40
2019-05-16T18:49:24.996Z,6.00
2019-05-16T18:51:53.062Z,5.63
2019-05-16T18:54:21.610Z,5.47
2019-05-16T18:56:49.693Z,5.23
2019-05-16T18:59:18.043Z,5.83
2019-05-16T19:01:47.115Z,5.37
2019-05-16T19:04:17.570Z,4.63
2019-05-16T19:06:45.803Z,5.13
2019-05-16T19:09:16.478Z,4.97
2019-05-16T19:11:44.880Z,4.83
2019-05-16T19:14:13.216Z,4.97
2019-05-16T19:16:41.526Z,5.13
2019-05-16T19:19:09.745Z,4.50
2019-05-16T19:21:38.021Z,4.30
2019-05-16T19:24:07.075Z,5.07
2019-05-16T19:26:37.367Z,6.10
2019-05-16T19:29:06.520Z,4.63
2019-05-16T19:31:38.885Z,4.40
2019-05-16T19:34:07.122Z,4.60
2019-05-16T19:36:36.194Z,5.60
2019-05-16T19:39:07.007Z,4.50
2019-05-16T19:41:38.660Z,4.70
2019-05-16T19:44:06.774Z,4.97
2019-05-16T19:46:35.312Z,4.43
2019-05-16T19:49:06.342Z,4.40
2019-05-16T19:51:36.160Z,4.90
2019-05-16T19:54:06.992Z,4.63
2019-05-16T19:56:37.380Z,4.33
2019-05-16T19:59:06.677Z,4.73
2019-05-16T20:01:36.897Z,4.43
2019-05-16T20:04:05.835Z,3.93
2019-05-16T20:06:34.289Z,4.10
2019-05-16T20:09:03.250Z,4.27
2019-05-16T20:11:32.210Z,4.60
2019-05-16T20:14:01.129Z,4.27
2019-05-16T20:16:30.040Z,4.77
2019-05-16T20:18:58.739Z,4.73
2019-05-16T20:21:28.005Z,4.50
2019-05-16T20:23:57.132Z,4.63
2019-05-16T20:26:27.357Z,4.53
2019-05-16T20:28:59.512Z,4.70
2019-05-16T20:31:27.303Z,4.20
2019-05-16T20:33:56.402Z,5.70
2019-05-16T20:36:26.427Z,5.63
2019-05-16T20:38:55.379Z,5.80
2019-05-16T20:41:24.519Z,5.80
2019-05-16T20:43:52.691Z,4.70
2019-05-16T20:46:21.780Z,4.83
2019-05-16T20:48:50.735Z,11.37
2019-05-16T20:51:20.243Z,7.17
2019-05-16T20:53:49.939Z,5.20
2019-05-16T20:56:18.698Z,5.00
2019-05-16T20:58:48.716Z,5.00
2019-05-16T21:01:17.471Z,5.83
2019-05-16T21:03:46.783Z,5.10
2019-05-16T21:06:17.099Z,5.60
2019-05-16T21:08:49.563Z,5.77
2019-05-16T21:11:17.148Z,6.50
2019-05-16T21:13:48.603Z,5.80
2019-05-16T21:16:16.850Z,7.87
2019-05-16T21:18:46.991Z,5.47
2019-05-16T21:21:16.590Z,6.10
2019-05-16T21:23:46.968Z,5.57
2019-05-16T21:26:15.269Z,5.60
2019-05-16T21:28:46.258Z,5.83
2019-05-16T21:31:16.384Z,5.40
2019-05-16T21:33:46.934Z,5.47
2019-05-16T21:36:16.082Z,5.40
2019-05-16T21:38:46.792Z,5.37
2019-05-16T21:41:16.829Z,5.90
2019-05-16T21:43:47.003Z,5.37
2019-05-16T21:49:27.619Z,5.40
2019-05-16T21:51:57.097Z,4.87
2019-05-16T21:54:28.652Z,4.70
2019-05-16T21:56:57.155Z,4.63
2019-05-16T21:59:26.698Z,5.07
2019-05-16T22:01:56.594Z,5.57
2019-05-16T22:04:25.331Z,5.43
2019-05-16T22:06:53.366Z,4.53
2019-05-16T22:09:21.527Z,5.33
2019-05-16T22:11:50.314Z,5.43
2019-05-16T22:14:21.139Z,4.93
2019-05-16T22:16:49.389Z,5.13
2019-05-16T22:19:18.083Z,5.77
2019-05-16T22:21:46.711Z,4.97
2019-05-16T22:24:17.210Z,5.13
2019-05-16T22:26:46.736Z,5.17
2019-05-16T22:29:17.060Z,5.47
2019-05-16T22:31:47.128Z,4.93
2019-05-16T22:34:16.913Z,4.90
2019-05-16T22:36:46.262Z,5.20
2019-05-16T22:39:17.334Z,5.27
2019-05-16T22:41:46.594Z,5.23
2019-05-16T22:44:17.416Z,5.23
2019-05-16T22:46:46.497Z,5.17
2019-05-16T22:49:16.967Z,5.60
2019-05-16T22:51:45.735Z,5.77
2019-05-16T22:54:17.049Z,4.73
2019-05-16T22:56:46.510Z,5.03
2019-05-16T22:59:16.618Z,4.93
2019-05-16T23:01:44.843Z,5.00
2019-05-16T23:04:13.882Z,5.33
2019-05-16T23:06:42.618Z,4.67
2019-05-16T23:09:11.382Z,5.40
2019-05-16T23:11:39.516Z,6.23
2019-05-16T23:14:07.564Z,5.43
2019-05-16T23:16:37.332Z,5.80
2019-05-16T23:19:06.726Z,5.33
2019-05-16T23:21:36.768Z,5.03
2019-05-16T23:24:06.679Z,6.27
2019-05-16T23:26:36.345Z,6.57
2019-05-16T23:29:04.464Z,7.00
2019-05-16T23:31:33.193Z,6.40
2019-05-16T23:34:01.845Z,6.33
2019-05-16T23:36:30.440Z,5.47
2019-05-16T23:38:58.440Z,6.00
2019-05-16T23:41:27.371Z,5.80
2019-05-16T23:43:56.671Z,5.77
2019-05-16T23:46:24.900Z,5.13
2019-05-16T23:48:53.346Z,5.57
2019-05-16T23:51:22.099Z,5.43
2019-05-16T23:53:50.842Z,5.67
2019-05-16T23:56:19.486Z,5.63
2019-05-16T23:58:47.872Z,6.20
